KARA/ARA METAR and TAF weather

Enter ICAO airport designator
Station Type Date Time Source
KARA METAR 2021/03/07 06:53 UTC NOAA

KARA 070653Z AUTO 03007KT 10SM CLR 09/01 A3028 RMK AO2 SLP254 T00940011


Station Type Date Time Source
KARA Decoded METAR 2021/03/07 06:53 UTC NOAA

NEW IBERIA ACADIANA REGIONAL, LA, United States (KARA) 30-02N 091-53W 18M
Mar 07, 2021 - 01:53 AM EST / 2021.03.07 0653 UTC
Wind: from the NNE (030 degrees) at 8 MPH (7 KT):0
Visibility: 10 mile(s):0
Sky conditions: clear
Temperature: 48.9 F (9.4 C)
Dew Point: 34.0 F (1.1 C)
Relative Humidity: 56%
Pressure (altimeter): 30.28 in. Hg (1025 hPa)
ob: KARA 070653Z AUTO 03007KT 10SM CLR 09/01 A3028 RMK AO2 SLP254 T00940011
cycle: 7

Station Type Date Time Source
KARA TAF 2021/03/07 06:24 UTC NOAA

TAF KARA 070520Z 0706/0806 03008KT P6SM SKC
FM071200 05010KT P6SM FEW250
FM071800 05007KT P6SM SKC

Example: see airport list